createdAt,value
2023-02-19T00:01:54.715Z,53.24
2023-02-19T00:03:57.468Z,53.55
2023-02-19T00:06:01.610Z,54.28
2023-02-19T00:08:03.250Z,54.09
2023-02-19T00:10:05.032Z,54.16
2023-02-19T00:12:06.766Z,54.02
2023-02-19T00:14:14.441Z,53.95
2023-02-19T00:16:19.209Z,54.03
2023-02-19T00:18:20.770Z,53.98
2023-02-19T00:20:22.348Z,53.85
2023-02-19T00:22:23.950Z,54.01
2023-02-19T00:24:25.782Z,53.68
2023-02-19T00:26:28.272Z,53.93
2023-02-19T00:28:29.937Z,53.58
2023-02-19T00:30:32.983Z,53.65
2023-02-19T00:32:34.585Z,53.69
2023-02-19T00:34:36.285Z,53.89
2023-02-19T00:36:39.773Z,53.73
2023-02-19T00:38:43.073Z,53.84
2023-02-19T00:40:44.596Z,54.08
2023-02-19T00:42:46.160Z,53.84
2023-02-19T00:44:47.729Z,54.12
2023-02-19T00:46:50.621Z,54.21
2023-02-19T00:48:52.634Z,54.17
2023-02-19T00:50:54.163Z,54.19
2023-02-19T00:52:55.690Z,53.48
2023-02-19T00:54:57.277Z,53.81
2023-02-19T00:56:58.715Z,53.52
2023-02-19T00:59:00.369Z,53.93
2023-02-19T01:01:02.289Z,54.03
2023-02-19T01:03:05.261Z,53.81
2023-02-19T01:05:07.147Z,53.91
2023-02-19T01:07:10.134Z,53.82
2023-02-19T01:09:11.820Z,53.57
2023-02-19T01:11:14.773Z,53.64
2023-02-19T01:13:17.004Z,53.88
2023-02-19T01:15:18.752Z,53.97
2023-02-19T01:17:20.392Z,54.03
2023-02-19T01:19:23.357Z,54.20
2023-02-19T01:21:26.644Z,54.18
2023-02-19T01:23:28.186Z,54.20
2023-02-19T01:25:29.881Z,54.50
2023-02-19T01:27:31.451Z,54.30
2023-02-19T01:29:33.308Z,54.44
2023-02-19T01:31:35.149Z,54.32
2023-02-19T01:33:36.712Z,54.15
2023-02-19T01:35:40.125Z,54.54
2023-02-19T01:37:41.665Z,54.44
2023-02-19T01:39:43.337Z,54.78
2023-02-19T01:41:44.874Z,55.49
2023-02-19T01:43:58.628Z,56.39
2023-02-19T01:46:00.632Z,56.41
2023-02-19T01:48:07.638Z,56.38
2023-02-19T01:50:09.342Z,56.34
2023-02-19T01:52:18.646Z,56.78
2023-02-19T01:54:23.390Z,56.48
2023-02-19T01:56:27.024Z,56.01
2023-02-19T01:58:31.638Z,56.07
2023-02-19T02:00:33.967Z,56.06
2023-02-19T02:02:36.185Z,56.00
2023-02-19T02:04:38.022Z,55.87
2023-02-19T02:06:47.939Z,55.98
2023-02-19T02:08:54.896Z,56.22
2023-02-19T02:10:57.490Z,56.16
2023-02-19T02:12:59.052Z,56.30
2023-02-19T02:15:00.790Z,56.33
2023-02-19T02:17:11.289Z,56.26
2023-02-19T02:19:30.478Z,56.59
2023-02-19T02:21:53.904Z,56.54
2023-02-19T02:24:11.869Z,56.91
2023-02-19T02:26:28.417Z,57.18
2023-02-19T02:28:50.009Z,57.28
2023-02-19T02:30:56.343Z,57.78
2023-02-19T02:33:04.552Z,57.95
2023-02-19T02:35:10.144Z,57.90
2023-02-19T02:37:13.184Z,57.50
2023-02-19T02:39:18.741Z,58.10
2023-02-19T02:41:21.249Z,57.97
2023-02-19T02:43:22.943Z,57.94
2023-02-19T02:45:28.235Z,57.81
2023-02-19T02:47:33.332Z,58.46
2023-02-19T02:49:35.559Z,58.34
2023-02-19T02:51:41.314Z,58.57
2023-02-19T02:53:48.966Z,58.47
2023-02-19T02:55:52.656Z,58.51
2023-02-19T02:57:54.637Z,58.55
2023-02-19T02:59:56.751Z,58.61
2023-02-19T03:02:02.674Z,58.42
2023-02-19T03:04:11.000Z,58.65
2023-02-19T03:06:17.183Z,58.91
2023-02-19T03:08:23.892Z,59.04
2023-02-19T03:10:31.047Z,59.23
2023-02-19T03:12:35.714Z,59.19
2023-02-19T03:14:41.841Z,59.20
2023-02-19T03:16:46.279Z,59.14
2023-02-19T03:18:51.898Z,59.63
2023-02-19T03:20:58.008Z,59.37
2023-02-19T03:23:01.073Z,59.93
2023-02-19T03:25:07.228Z,59.91
2023-02-19T03:27:12.798Z,59.78
2023-02-19T03:29:14.860Z,59.62
2023-02-19T03:31:21.225Z,59.55
2023-02-19T03:33:27.012Z,59.52
2023-02-19T03:35:33.154Z,59.55
2023-02-19T03:37:39.674Z,59.54
2023-02-19T03:39:41.483Z,59.78
2023-02-19T03:41:50.148Z,59.83
2023-02-19T03:43:57.457Z,59.75
2023-02-19T03:46:09.534Z,60.19
2023-02-19T03:48:22.026Z,60.40
2023-02-19T03:50:28.952Z,60.94
2023-02-19T03:52:39.835Z,60.90
2023-02-19T03:54:50.432Z,60.94
2023-02-19T03:56:58.545Z,61.21
2023-02-19T03:59:06.730Z,61.19
2023-02-19T04:01:19.686Z,61.16
2023-02-19T04:03:27.678Z,61.57
2023-02-19T04:05:31.833Z,61.52
2023-02-19T04:07:37.851Z,61.51
2023-02-19T04:09:46.173Z,61.20
2023-02-19T04:11:49.823Z,61.56
2023-02-19T04:13:57.640Z,61.36
2023-02-19T04:16:06.739Z,61.50
2023-02-19T04:18:15.025Z,62.04
2023-02-19T04:20:19.812Z,62.29
2023-02-19T04:22:22.422Z,62.25
2023-02-19T04:24:29.961Z,62.29
2023-02-19T04:26:34.246Z,62.48
2023-02-19T04:28:36.112Z,62.52
2023-02-19T04:30:37.782Z,62.50
2023-02-19T04:32:39.682Z,62.94
2023-02-19T04:34:41.287Z,63.04
2023-02-19T04:36:42.863Z,62.96
2023-02-19T04:38:44.452Z,63.80
2023-02-19T04:40:46.148Z,64.05
2023-02-19T04:42:49.027Z,63.94
2023-02-19T04:44:50.538Z,64.11
2023-02-19T04:46:52.163Z,64.12
2023-02-19T04:48:53.772Z,64.65
2023-02-19T04:50:55.752Z,65.21
2023-02-19T04:52:57.542Z,65.22
2023-02-19T04:54:59.128Z,65.87
2023-02-19T04:57:00.719Z,65.85
2023-02-19T04:59:04.024Z,66.42
2023-02-19T05:01:05.972Z,66.35
2023-02-19T05:03:07.720Z,66.80
2023-02-19T05:05:09.356Z,66.35
2023-02-19T05:07:10.911Z,66.38
2023-02-19T05:09:12.590Z,66.14
2023-02-19T05:11:14.383Z,66.38
2023-02-19T05:13:16.038Z,66.15
2023-02-19T05:15:19.057Z,66.23
2023-02-19T05:17:22.671Z,66.14
2023-02-19T05:19:24.211Z,66.20
2023-02-19T05:21:25.796Z,66.36
2023-02-19T05:23:28.080Z,66.67
2023-02-19T05:25:29.657Z,66.42
2023-02-19T05:27:31.692Z,65.92
2023-02-19T05:29:33.334Z,65.84
2023-02-19T05:31:36.442Z,65.04
2023-02-19T05:33:38.286Z,66.16
2023-02-19T05:35:44.554Z,66.01
2023-02-19T05:37:46.118Z,65.73
2023-02-19T05:39:48.566Z,65.89
2023-02-19T05:41:50.168Z,65.85
2023-02-19T05:43:52.434Z,65.98
2023-02-19T05:45:58.094Z,66.12
2023-02-19T05:48:01.599Z,66.68
2023-02-19T05:50:03.180Z,66.20
2023-02-19T05:52:05.289Z,66.03
2023-02-19T05:54:06.879Z,66.02
2023-02-19T05:56:24.340Z,65.77
2023-02-19T05:58:26.038Z,66.42
2023-02-19T06:00:27.920Z,66.28
2023-02-19T06:02:29.482Z,66.03
2023-02-19T06:04:32.424Z,66.03
2023-02-19T06:06:34.076Z,66.20
2023-02-19T06:08:35.629Z,66.12
2023-02-19T06:10:38.312Z,66.08
2023-02-19T06:12:40.001Z,66.23
2023-02-19T06:14:41.762Z,66.01
2023-02-19T06:16:43.447Z,66.29
2023-02-19T06:18:45.323Z,66.00
2023-02-19T06:20:48.321Z,65.91
2023-02-19T06:22:49.909Z,65.62
2023-02-19T06:24:51.527Z,65.68
2023-02-19T06:26:53.134Z,65.39
2023-02-19T06:28:54.745Z,65.28
2023-02-19T06:30:58.663Z,65.48
2023-02-19T06:33:00.280Z,65.02
2023-02-19T06:35:02.016Z,64.99
2023-02-19T06:37:05.427Z,65.08
2023-02-19T06:39:07.296Z,65.41
2023-02-19T06:41:10.293Z,65.04
2023-02-19T06:43:13.397Z,64.87
2023-02-19T06:45:14.949Z,65.02
2023-02-19T06:47:16.549Z,64.86
2023-02-19T06:49:18.239Z,64.65
2023-02-19T06:51:20.086Z,64.56
2023-02-19T06:53:23.732Z,64.51
2023-02-19T06:55:25.371Z,64.85
2023-02-19T06:57:26.933Z,65.00
2023-02-19T06:59:30.330Z,64.82
2023-02-19T07:01:33.919Z,64.93
2023-02-19T07:03:35.481Z,64.77
2023-02-19T07:05:37.126Z,64.67
2023-02-19T07:07:38.840Z,64.82
2023-02-19T07:09:41.830Z,64.90
2023-02-19T07:11:43.438Z,65.02
2023-02-19T07:13:45.440Z,65.22
2023-02-19T07:15:46.978Z,64.91
2023-02-19T07:17:48.566Z,64.93
2023-02-19T07:19:50.148Z,64.85
2023-02-19T07:21:51.702Z,64.80
2023-02-19T07:23:53.894Z,64.82
2023-02-19T07:25:57.163Z,64.63
2023-02-19T07:27:58.739Z,64.56
2023-02-19T07:30:00.446Z,64.26
2023-02-19T07:32:02.246Z,64.60
2023-02-19T07:34:03.812Z,64.96
2023-02-19T07:36:07.620Z,65.17
2023-02-19T07:38:09.200Z,64.85
2023-02-19T07:40:10.927Z,64.96
2023-02-19T07:42:13.878Z,64.85
2023-02-19T07:44:27.810Z,64.41
2023-02-19T07:46:29.400Z,64.34
2023-02-19T07:48:31.133Z,64.47
2023-02-19T07:50:32.711Z,63.32
2023-02-19T07:52:34.756Z,63.44
2023-02-19T07:54:36.337Z,63.52
2023-02-19T07:56:37.922Z,63.26
2023-02-19T07:58:41.580Z,63.14
2023-02-19T08:00:43.207Z,63.65
2023-02-19T08:02:44.871Z,62.48
2023-02-19T08:04:47.554Z,62.56
2023-02-19T08:06:49.140Z,62.46
2023-02-19T08:08:50.789Z,62.42
2023-02-19T08:10:52.368Z,62.25
2023-02-19T08:12:57.193Z,62.52
2023-02-19T08:15:00.204Z,62.09
2023-02-19T08:17:01.803Z,63.07
2023-02-19T08:19:06.214Z,61.60
2023-02-19T08:21:07.927Z,62.74
2023-02-19T08:23:10.535Z,61.78
2023-02-19T08:25:12.333Z,62.27
2023-02-19T08:27:13.972Z,62.29
2023-02-19T08:29:15.555Z,62.32
2023-02-19T08:31:18.619Z,61.80
2023-02-19T08:33:21.493Z,62.20
2023-02-19T08:35:30.317Z,61.49
2023-02-19T08:37:31.937Z,60.73
2023-02-19T08:39:33.574Z,60.90
2023-02-19T08:41:35.122Z,61.32
2023-02-19T08:43:36.767Z,61.87
2023-02-19T08:45:39.834Z,61.91
2023-02-19T08:47:42.925Z,61.97
2023-02-19T08:49:44.736Z,61.98
2023-02-19T08:51:46.549Z,62.32
2023-02-19T08:53:48.233Z,61.07
2023-02-19T08:55:49.832Z,59.97
2023-02-19T08:57:54.504Z,60.05
2023-02-19T08:59:56.262Z,60.16
2023-02-19T09:01:58.586Z,60.28
2023-02-19T09:04:01.654Z,59.76
2023-02-19T09:06:03.533Z,59.15
2023-02-19T09:08:05.192Z,59.85
2023-02-19T09:10:10.830Z,59.85
2023-02-19T09:12:13.333Z,59.44
2023-02-19T09:14:14.924Z,59.21
2023-02-19T09:16:16.576Z,58.59
2023-02-19T09:18:18.092Z,59.61
2023-02-19T09:20:21.044Z,58.81
2023-02-19T09:22:22.741Z,57.92
2023-02-19T09:24:24.960Z,56.57
2023-02-19T09:26:27.002Z,58.59
2023-02-19T09:28:29.000Z,57.08
2023-02-19T09:30:30.619Z,57.26
2023-02-19T09:32:32.844Z,57.21
2023-02-19T09:34:34.475Z,57.70
2023-02-19T09:36:40.325Z,58.71
2023-02-19T09:38:42.581Z,58.63
2023-02-19T09:40:44.224Z,58.43
2023-02-19T09:42:45.814Z,57.66
2023-02-19T09:44:50.245Z,58.54
2023-02-19T09:46:54.273Z,58.38
2023-02-19T09:49:02.260Z,58.36
2023-02-19T09:51:07.684Z,57.94
2023-02-19T09:53:17.903Z,58.82
2023-02-19T09:55:33.373Z,57.40
2023-02-19T09:57:36.256Z,57.28
2023-02-19T09:59:42.023Z,57.24
2023-02-19T10:01:44.656Z,55.90
2023-02-19T10:03:48.402Z,56.80
2023-02-19T10:05:50.090Z,56.77
2023-02-19T10:07:54.749Z,56.76
2023-02-19T10:10:01.852Z,56.85
2023-02-19T10:12:11.638Z,57.79
2023-02-19T10:14:17.185Z,57.34
2023-02-19T10:16:23.973Z,56.62
2023-02-19T10:18:28.091Z,56.15
2023-02-19T10:20:29.929Z,55.48
2023-02-19T10:22:33.858Z,55.65
2023-02-19T10:24:38.423Z,55.74
2023-02-19T10:26:41.543Z,55.81
2023-02-19T10:28:43.153Z,55.03
2023-02-19T10:30:48.232Z,55.50
2023-02-19T10:33:09.966Z,56.01
2023-02-19T10:35:13.740Z,56.63
2023-02-19T10:37:18.516Z,56.28
2023-02-19T10:39:40.813Z,55.79
2023-02-19T10:41:44.388Z,55.58
2023-02-19T10:43:55.197Z,56.01
2023-02-19T10:45:58.525Z,54.26
2023-02-19T10:48:02.648Z,51.45
2023-02-19T10:50:04.916Z,51.22
2023-02-19T10:52:14.206Z,50.56
2023-02-19T10:54:18.750Z,49.90
2023-02-19T10:56:24.584Z,50.52
2023-02-19T10:58:27.478Z,48.87
2023-02-19T11:00:30.856Z,48.11
2023-02-19T11:02:33.890Z,46.10
2023-02-19T11:04:35.696Z,46.94
2023-02-19T11:06:37.455Z,47.19
2023-02-19T11:08:51.807Z,46.98
2023-02-19T11:10:55.951Z,46.20
2023-02-19T11:13:00.105Z,45.92
2023-02-19T11:15:19.794Z,46.14
2023-02-19T11:17:24.134Z,46.08
2023-02-19T11:19:30.118Z,46.93
2023-02-19T11:21:31.977Z,47.14
2023-02-19T11:23:37.280Z,47.03
2023-02-19T11:25:46.092Z,46.57
2023-02-19T11:27:55.695Z,47.80
2023-02-19T11:30:33.866Z,46.63
2023-02-19T11:32:37.029Z,46.34
2023-02-19T11:34:38.830Z,46.91
2023-02-19T11:36:41.836Z,46.63
2023-02-19T11:38:43.800Z,48.00
2023-02-19T11:40:52.249Z,47.71
2023-02-19T11:43:00.370Z,46.91
2023-02-19T11:45:17.114Z,47.06
2023-02-19T11:47:47.873Z,46.83
2023-02-19T11:49:58.726Z,48.57
2023-02-19T11:52:22.092Z,48.77
2023-02-19T11:57:41.607Z,48.31
2023-02-19T11:59:55.671Z,48.90
2023-02-19T12:02:13.606Z,48.18
2023-02-19T12:04:43.417Z,47.66
2023-02-19T12:06:55.558Z,46.63
2023-02-19T12:09:21.180Z,47.04
2023-02-19T12:11:44.247Z,47.86
2023-02-19T12:14:05.280Z,47.56
2023-02-19T12:16:22.947Z,47.74
2023-02-19T12:18:47.680Z,48.15
2023-02-19T12:21:03.486Z,47.53
2023-02-19T12:23:31.961Z,47.70
2023-02-19T12:25:57.368Z,47.25
2023-02-19T12:28:33.643Z,48.02
2023-02-19T12:30:56.218Z,47.76
2023-02-19T12:33:36.734Z,48.12
2023-02-19T12:35:52.283Z,48.68
2023-02-19T12:38:09.424Z,47.52
2023-02-19T12:40:28.319Z,47.01
2023-02-19T12:42:47.782Z,48.02
2023-02-19T12:44:57.204Z,47.98
2023-02-19T12:47:01.735Z,48.34
2023-02-19T12:49:10.529Z,48.46
2023-02-19T12:51:21.544Z,47.80
2023-02-19T12:53:42.122Z,47.43
2023-02-19T12:55:46.399Z,48.06
2023-02-19T12:57:51.149Z,47.85
2023-02-19T12:59:57.410Z,48.25
2023-02-19T13:02:07.667Z,48.19
2023-02-19T13:04:19.297Z,47.88
2023-02-19T13:06:35.221Z,47.88
2023-02-19T13:09:03.518Z,46.28
2023-02-19T13:11:10.933Z,46.29
2023-02-19T13:13:23.978Z,46.82
2023-02-19T13:15:34.250Z,47.38
2023-02-19T13:17:44.239Z,47.11
2023-02-19T13:19:51.933Z,47.34
2023-02-19T13:22:08.565Z,46.68
2023-02-19T13:24:17.031Z,47.36
2023-02-19T13:26:50.268Z,46.13
2023-02-19T13:29:08.116Z,46.47
2023-02-19T13:31:29.675Z,46.45
2023-02-19T13:33:44.856Z,45.98
2023-02-19T13:36:03.505Z,46.59
2023-02-19T13:40:22.639Z,47.21
2023-02-19T13:42:26.920Z,47.40
2023-02-19T13:44:30.843Z,46.68
2023-02-19T13:46:38.665Z,47.14
2023-02-19T13:48:44.279Z,46.86
2023-02-19T13:50:46.279Z,47.44
2023-02-19T13:52:48.226Z,47.05
2023-02-19T13:54:49.949Z,46.33
2023-02-19T13:59:35.537Z,46.66
2023-02-19T14:02:10.851Z,46.66
2023-02-19T14:04:20.198Z,46.03
2023-02-19T14:06:21.890Z,45.29
2023-02-19T14:08:48.732Z,45.77
2023-02-19T14:10:53.076Z,45.88
2023-02-19T14:12:54.683Z,45.49
2023-02-19T14:14:57.895Z,45.82
2023-02-19T14:17:01.786Z,45.76
2023-02-19T14:19:04.326Z,46.17
2023-02-19T14:21:14.332Z,46.51
2023-02-19T14:23:22.391Z,45.86
2023-02-19T14:25:49.231Z,46.48
2023-02-19T14:27:53.002Z,46.65
2023-02-19T14:29:54.836Z,46.35
2023-02-19T14:31:58.052Z,45.66
2023-02-19T14:34:01.612Z,45.93
2023-02-19T14:36:05.848Z,46.24
2023-02-19T14:38:15.103Z,46.65
2023-02-19T14:40:21.882Z,45.74
2023-02-19T14:42:26.135Z,46.45
2023-02-19T14:44:30.409Z,46.11
2023-02-19T14:46:35.176Z,46.99
2023-02-19T14:48:42.455Z,47.82
2023-02-19T14:50:48.282Z,47.30
2023-02-19T14:52:56.281Z,47.79
2023-02-19T14:55:03.460Z,47.29
2023-02-19T14:57:10.509Z,47.13
2023-02-19T14:59:24.903Z,46.77
2023-02-19T15:01:27.121Z,46.90
2023-02-19T15:03:35.809Z,46.52
2023-02-19T15:05:38.915Z,47.35
2023-02-19T15:07:44.318Z,47.89
2023-02-19T15:09:49.152Z,47.75
2023-02-19T15:11:50.896Z,47.34
2023-02-19T15:13:57.241Z,46.86
2023-02-19T15:15:59.485Z,47.23
2023-02-19T15:18:02.839Z,46.71
2023-02-19T15:20:11.136Z,46.76
2023-02-19T15:22:19.926Z,47.18
2023-02-19T15:24:21.877Z,47.27
2023-02-19T15:26:30.091Z,48.24
2023-02-19T15:28:34.183Z,47.67
2023-02-19T15:30:35.950Z,46.98
2023-02-19T15:32:37.648Z,47.14
2023-02-19T15:34:39.340Z,47.05
2023-02-19T15:36:41.087Z,46.43
2023-02-19T15:38:44.412Z,46.82
2023-02-19T15:40:47.376Z,47.40
2023-02-19T15:42:49.055Z,46.80
2023-02-19T15:44:55.225Z,47.75
2023-02-19T15:46:59.246Z,47.28
2023-02-19T15:49:06.823Z,47.53
2023-02-19T15:51:13.637Z,47.43
2023-02-19T15:53:18.717Z,47.27
2023-02-19T15:55:33.347Z,47.12
2023-02-19T15:57:41.164Z,47.24
2023-02-19T15:59:46.802Z,46.78
2023-02-19T16:01:48.465Z,47.35
2023-02-19T16:03:50.143Z,47.38
2023-02-19T16:05:59.882Z,47.61
2023-02-19T16:08:16.450Z,47.92
2023-02-19T16:10:21.786Z,48.33
2023-02-19T16:12:24.949Z,48.49
2023-02-19T16:14:31.848Z,48.50
2023-02-19T16:16:38.511Z,48.29
2023-02-19T16:18:45.374Z,49.08
2023-02-19T16:20:47.844Z,48.83
2023-02-19T16:22:50.486Z,49.13
2023-02-19T16:24:54.939Z,49.55
2023-02-19T16:26:57.869Z,49.42
2023-02-19T16:29:00.907Z,49.66
2023-02-19T16:31:04.779Z,49.69
2023-02-19T16:33:33.345Z,49.69
2023-02-19T16:35:36.186Z,50.19
2023-02-19T16:37:40.857Z,50.48
2023-02-19T16:39:45.644Z,50.36
2023-02-19T16:42:13.030Z,49.87
2023-02-19T16:46:45.722Z,50.26
2023-02-19T16:48:47.520Z,50.31
2023-02-19T16:50:49.988Z,50.90
2023-02-19T16:52:52.854Z,50.96
2023-02-19T16:54:54.460Z,50.83
2023-02-19T16:56:56.079Z,50.68
2023-02-19T16:58:57.786Z,50.73
2023-02-19T17:01:00.099Z,50.81
2023-02-19T17:03:07.705Z,50.75
2023-02-19T17:05:09.551Z,51.05
2023-02-19T17:07:13.110Z,51.37
2023-02-19T17:09:14.684Z,50.93
2023-02-19T17:11:28.536Z,51.02
2023-02-19T17:13:30.330Z,51.36
2023-02-19T17:15:37.253Z,51.33
2023-02-19T17:17:44.942Z,51.73
2023-02-19T17:20:13.225Z,51.17
2023-02-19T17:22:14.820Z,51.09
2023-02-19T17:24:16.438Z,51.00
2023-02-19T17:26:19.750Z,51.10
2023-02-19T17:28:21.440Z,51.17
2023-02-19T17:30:26.836Z,51.01
2023-02-19T17:32:28.552Z,50.94
2023-02-19T17:34:30.147Z,51.30
2023-02-19T17:36:33.098Z,51.18
2023-02-19T17:38:34.657Z,51.16
2023-02-19T17:40:36.447Z,51.42
2023-02-19T17:42:38.059Z,51.37
2023-02-19T17:44:39.725Z,51.58
2023-02-19T17:46:44.353Z,51.26
2023-02-19T17:48:46.067Z,51.49
2023-02-19T17:50:47.656Z,51.19
2023-02-19T17:52:50.672Z,51.13
2023-02-19T17:54:52.304Z,51.43
2023-02-19T17:56:53.897Z,51.39
2023-02-19T17:58:56.783Z,51.84
2023-02-19T18:00:58.639Z,52.68
2023-02-19T18:03:00.221Z,52.32
2023-02-19T18:05:01.834Z,52.02
2023-02-19T18:07:03.618Z,52.30
2023-02-19T18:09:06.571Z,52.16
2023-02-19T18:11:08.150Z,52.68
2023-02-19T18:13:09.807Z,52.83
2023-02-19T18:15:16.320Z,52.81
2023-02-19T18:17:17.942Z,53.02
2023-02-19T18:19:19.828Z,53.10
2023-02-19T18:21:23.619Z,53.04
2023-02-19T18:23:25.271Z,53.24
2023-02-19T18:25:28.316Z,53.11
2023-02-19T18:27:29.951Z,53.17
2023-02-19T18:29:32.452Z,53.49
2023-02-19T18:31:35.526Z,53.39
2023-02-19T18:33:37.285Z,53.27
2023-02-19T18:35:38.997Z,53.68
2023-02-19T18:37:40.672Z,53.10
2023-02-19T18:39:43.346Z,53.09
2023-02-19T18:41:50.542Z,53.08
2023-02-19T18:43:52.286Z,53.34
2023-02-19T18:45:53.946Z,53.12
2023-02-19T18:47:55.616Z,53.65
2023-02-19T18:49:58.310Z,53.33
2023-02-19T18:52:00.195Z,53.74
2023-02-19T18:54:01.779Z,53.38
2023-02-19T18:56:03.773Z,53.41
2023-02-19T18:58:06.735Z,53.13
2023-02-19T19:00:09.468Z,52.94
2023-02-19T19:02:14.465Z,53.11
2023-02-19T19:04:16.278Z,53.10
2023-02-19T19:06:17.884Z,53.33
2023-02-19T19:08:19.478Z,53.20
2023-02-19T19:10:22.103Z,53.20
2023-02-19T19:12:23.624Z,53.51
2023-02-19T19:14:29.673Z,53.08
2023-02-19T19:16:31.373Z,53.51
2023-02-19T19:18:32.887Z,53.32
2023-02-19T19:20:34.468Z,53.51
2023-02-19T19:22:36.387Z,53.41
2023-02-19T19:24:37.969Z,53.39
2023-02-19T19:26:43.635Z,53.26
2023-02-19T19:28:45.321Z,53.50
2023-02-19T19:30:48.402Z,53.17
2023-02-19T19:32:51.884Z,53.45
2023-02-19T19:34:54.223Z,53.47
2023-02-19T19:36:55.742Z,53.39
2023-02-19T19:38:57.473Z,53.04
2023-02-19T19:40:59.331Z,53.33
2023-02-19T19:43:00.925Z,53.55
2023-02-19T19:45:02.731Z,53.49
2023-02-19T19:47:05.813Z,53.51
2023-02-19T19:49:07.376Z,53.60
2023-02-19T19:51:09.340Z,53.63
2023-02-19T19:53:11.145Z,53.75
2023-02-19T19:55:12.697Z,53.44
2023-02-19T19:57:15.923Z,53.58
2023-02-19T19:59:20.335Z,53.53
2023-02-19T20:01:21.939Z,53.71
2023-02-19T20:03:24.975Z,53.87
2023-02-19T20:05:26.561Z,53.76
2023-02-19T20:07:28.128Z,53.79
2023-02-19T20:09:29.735Z,54.25
2023-02-19T20:11:31.374Z,54.14
2023-02-19T20:13:32.923Z,54.07
2023-02-19T20:15:34.946Z,53.96
2023-02-19T20:17:36.516Z,54.06
2023-02-19T20:19:39.495Z,54.18
2023-02-19T20:21:44.389Z,54.33
2023-02-19T20:23:46.033Z,54.56
2023-02-19T20:25:47.607Z,54.11
2023-02-19T20:27:49.579Z,54.18
2023-02-19T20:29:51.259Z,54.26
2023-02-19T20:31:53.067Z,54.43
2023-02-19T20:33:54.758Z,54.72
2023-02-19T20:35:57.731Z,54.34
2023-02-19T20:37:59.286Z,54.43
2023-02-19T20:40:00.870Z,54.79
2023-02-19T20:42:02.432Z,54.61
2023-02-19T20:44:04.131Z,54.18
2023-02-19T20:46:05.797Z,53.96
2023-02-19T20:48:07.389Z,54.32
2023-02-19T20:50:09.718Z,54.35
2023-02-19T20:52:14.817Z,54.61
2023-02-19T20:54:16.899Z,54.52
2023-02-19T20:56:18.438Z,54.30
2023-02-19T20:58:21.106Z,54.82
2023-02-19T21:00:23.265Z,54.48
2023-02-19T21:02:26.247Z,54.37
2023-02-19T21:04:28.230Z,54.66
2023-02-19T21:06:29.852Z,54.30
2023-02-19T21:08:32.728Z,54.38
2023-02-19T21:10:34.349Z,54.97
2023-02-19T21:12:35.855Z,54.94
2023-02-19T21:14:37.416Z,54.76
2023-02-19T21:16:39.181Z,55.00
2023-02-19T21:18:40.751Z,54.72
2023-02-19T21:20:42.385Z,55.02
2023-02-19T21:22:47.073Z,54.61
2023-02-19T21:24:50.909Z,54.68
2023-02-19T21:26:52.461Z,54.82
2023-02-19T21:28:54.236Z,54.75
2023-02-19T21:30:55.863Z,54.58
2023-02-19T21:32:57.400Z,54.59
2023-02-19T21:34:59.035Z,54.72
2023-02-19T21:37:00.588Z,54.75
2023-02-19T21:39:02.772Z,54.87
2023-02-19T21:41:06.327Z,55.00
2023-02-19T21:43:07.843Z,54.38
2023-02-19T21:45:09.790Z,54.49
2023-02-19T21:47:11.693Z,54.52
2023-02-19T21:49:13.292Z,54.28
2023-02-19T21:51:14.825Z,54.50
2023-02-19T21:53:16.471Z,54.21
2023-02-19T21:55:18.023Z,54.52
2023-02-19T21:57:21.007Z,54.46
2023-02-19T21:59:22.979Z,53.96
2023-02-19T22:01:27.185Z,54.39
2023-02-19T22:03:28.736Z,54.44
2023-02-19T22:05:30.333Z,54.66
2023-02-19T22:07:31.844Z,54.44
2023-02-19T22:09:33.412Z,54.29
2023-02-19T22:11:34.985Z,55.16
2023-02-19T22:13:38.013Z,54.68
2023-02-19T22:15:39.616Z,54.25
2023-02-19T22:17:41.399Z,54.48
2023-02-19T22:19:42.894Z,54.41
2023-02-19T22:21:44.996Z,54.23
2023-02-19T22:23:47.386Z,54.48
2023-02-19T22:25:49.067Z,54.36
2023-02-19T22:27:50.672Z,54.51
2023-02-19T22:29:53.605Z,54.49
2023-02-19T22:31:55.296Z,54.39
2023-02-19T22:33:56.950Z,54.47
2023-02-19T22:35:58.516Z,54.18
2023-02-19T22:38:00.113Z,54.02
2023-02-19T22:40:01.829Z,54.14
2023-02-19T22:42:03.721Z,54.42
2023-02-19T22:44:05.391Z,54.45
2023-02-19T22:46:12.291Z,54.14
2023-02-19T22:48:19.240Z,54.56
2023-02-19T22:50:26.698Z,54.38
2023-02-19T22:52:28.320Z,53.84
2023-02-19T22:54:29.910Z,54.17
2023-02-19T22:56:31.786Z,54.44
2023-02-19T22:58:33.352Z,54.51
2023-02-19T23:00:35.592Z,54.27
2023-02-19T23:02:40.294Z,53.81
2023-02-19T23:04:41.881Z,54.01
2023-02-19T23:06:44.664Z,54.34
2023-02-19T23:08:46.233Z,54.21
2023-02-19T23:10:47.815Z,54.10
2023-02-19T23:12:49.747Z,54.25
2023-02-19T23:14:51.318Z,53.69
2023-02-19T23:16:52.967Z,53.48
2023-02-19T23:18:55.980Z,53.20
2023-02-19T23:20:57.795Z,53.34
2023-02-19T23:22:59.380Z,53.60
2023-02-19T23:25:01.335Z,53.48
2023-02-19T23:27:03.029Z,54.21
2023-02-19T23:29:04.612Z,53.72
2023-02-19T23:31:06.934Z,53.64
2023-02-19T23:33:08.568Z,53.65
2023-02-19T23:35:11.556Z,53.58
2023-02-19T23:37:13.228Z,53.54
2023-02-19T23:39:16.522Z,53.60
2023-02-19T23:41:18.574Z,53.42
2023-02-19T23:43:20.170Z,53.86
2023-02-19T23:45:21.698Z,53.70
2023-02-19T23:47:23.257Z,54.00
2023-02-19T23:49:24.970Z,53.96
2023-02-19T23:51:27.944Z,53.53
2023-02-19T23:53:29.590Z,53.72
2023-02-19T23:55:33.433Z,53.69
2023-02-19T23:57:34.989Z,53.52
2023-02-19T23:59:36.546Z,52.90
